Time;durP1;ratioP1;P1;durP2;ratioP2;P2;SDS_P1;SDS_P2;PMS_P1;PMS_P2;Temp;Humidity;BMP_temperature;BMP_pressure;BME280_temperature;BME280_humidity;BME280_pressure;Samples;Min_cycle;Max_cycle;Signal;HPM_P1;HPM_P2
2021/07/31 05:00:43;;;;;;;2.50;1.52;;;;;;;17.56;83.99;92222.84;1582279;24;20339;-92
2021/07/31 05:03:09;;;;;;;4.23;2.57;;;;;;;17.57;83.89;92217.22;4824860;29;20153;-80
2021/07/31 05:05:36;;;;;;;1.50;1.23;;;;;;;17.62;83.44;92222.25;4834201;29;20090;-78
2021/07/31 05:08:02;;;;;;;4.38;1.83;;;;;;;17.64;83.24;92217.41;4835002;29;20050;-80
2021/07/31 05:10:43;;;;;;;2.42;1.63;;;;;;;17.56;82.81;92197.16;4834757;29;20061;-80
2021/07/31 05:13:18;;;;;;;3.83;1.30;;;;;;;17.85;82.47;92216.47;4830031;29;20045;-80
2021/07/31 05:15:45;;;;;;;3.33;1.75;;;;;;;18.02;82.05;92224.13;4816276;29;20045;-79
2021/07/31 05:18:12;;;;;;;3.10;1.65;;;;;;;18.05;81.55;92218.16;4845426;29;20136;-79
2021/07/31 05:20:39;;;;;;;4.55;1.98;;;;;;;18.25;81.13;92229.66;4816612;29;20054;-79
2021/07/31 05:23:05;;;;;;;6.18;2.35;;;;;;;18.43;80.67;92222.16;4824999;29;20045;-78
2021/07/31 05:25:31;;;;;;;2.70;1.85;;;;;;;18.63;80.15;92230.19;4840237;29;20041;-83
2021/07/31 05:27:56;;;;;;;2.53;1.98;;;;;;;18.77;79.31;92219.16;4840776;29;20061;-79
2021/07/31 05:30:22;;;;;;;1.77;1.27;;;;;;;19.02;79.16;92238.34;4840576;29;20042;-80
2021/07/31 05:32:48;;;;;;;2.10;1.40;;;;;;;19.25;78.63;92233.16;4827236;29;20054;-80
2021/07/31 05:35:14;;;;;;;3.70;2.40;;;;;;;19.42;77.85;92232.78;4838912;29;20061;-79
2021/07/31 05:37:40;;;;;;;1.50;1.20;;;;;;;19.56;77.58;92238.38;4821117;29;20054;-81
2021/07/31 05:40:07;;;;;;;6.78;2.10;;;;;;;19.63;77.61;92226.38;4804366;29;20051;-79
2021/07/31 05:42:33;;;;;;;3.97;1.95;;;;;;;19.67;77.18;92228.00;4813816;29;20047;-78
2021/07/31 05:45:00;;;;;;;2.72;1.45;;;;;;;19.67;77.67;92228.00;4826662;29;20532;-79
2021/07/31 05:47:27;;;;;;;3.40;1.55;;;;;;;19.48;78.90;92233.28;4796492;29;20051;-79
2021/07/31 05:49:54;;;;;;;2.25;1.60;;;;;;;19.44;79.26;92240.41;4817958;29;20054;-78
2021/07/31 05:52:24;;;;;;;6.68;2.42;;;;;;;19.48;79.05;92235.94;4826349;29;20613;-78
2021/07/31 05:54:51;;;;;;;3.47;1.83;;;;;;;19.65;79.15;92230.22;4836125;29;20087;-79
2021/07/31 05:57:17;;;;;;;3.65;2.42;;;;;;;19.79;78.62;92235.06;4830906;29;20070;-78
2021/07/31 05:59:42;;;;;;;2.03;1.58;;;;;;;20.03;76.16;92233.28;4826442;29;20127;-79
2021/07/31 06:02:09;;;;;;;2.03;1.25;;;;;;;20.28;74.62;92236.38;4812157;29;20244;-77
2021/07/31 06:04:37;;;;;;;3.17;2.13;;;;;;;20.67;72.93;92231.00;4843937;29;20061;-78
2021/07/31 06:07:06;;;;;;;3.75;2.63;;;;;;;21.44;69.40;92234.50;4838633;29;20136;-78
2021/07/31 06:09:31;;;;;;;3.15;2.08;;;;;;;22.73;64.05;92236.75;4862721;29;20088;-78
2021/07/31 06:11:57;;;;;;;4.93;3.05;;;;;;;24.36;58.51;92231.25;4826111;29;20246;-78
2021/07/31 06:14:23;;;;;;;3.20;2.08;;;;;;;24.25;57.38;92232.00;4853075;29;20567;-77
2021/07/31 06:16:48;;;;;;;1.83;1.38;;;;;;;23.47;60.95;92243.81;4865147;29;20045;-79
2021/07/31 06:19:14;;;;;;;5.53;2.40;;;;;;;22.70;66.57;92242.03;4848563;29;20051;-77
2021/07/31 06:21:40;;;;;;;2.10;1.63;;;;;;;22.26;68.64;92242.75;4863478;29;20070;-78
2021/07/31 06:24:05;;;;;;;11.00;1.75;;;;;;;21.86;68.94;92249.50;4827185;29;20046;-78
2021/07/31 06:26:31;;;;;;;2.80;1.80;;;;;;;21.54;68.13;92252.50;4841213;29;20461;-79
2021/07/31 06:28:56;;;;;;;3.42;2.17;;;;;;;21.25;69.53;92252.06;4800228;29;20302;-79
2021/07/31 06:31:22;;;;;;;3.45;2.25;;;;;;;21.06;72.45;92252.16;4826697;29;20493;-78
2021/07/31 06:33:48;;;;;;;4.57;2.38;;;;;;;21.16;72.98;92254.22;4829141;29;20531;-78
2021/07/31 06:36:22;;;;;;;3.50;2.47;;;;;;;21.38;73.00;92249.97;4840745;29;20133;-78
2021/07/31 06:38:48;;;;;;;4.78;3.40;;;;;;;21.49;70.43;92255.50;4842926;29;20042;-78
2021/07/31 06:41:13;;;;;;;3.03;1.90;;;;;;;21.53;68.62;92256.31;4841541;29;20042;-78
2021/07/31 06:43:39;;;;;;;1.77;1.05;;;;;;;21.24;71.58;92266.50;4861076;29;20079;-78
2021/07/31 06:46:12;;;;;;;0.88;0.82;;;;;;;20.92;72.76;92261.47;4861628;29;20038;-77
2021/07/31 06:48:39;;;;;;;2.78;2.05;;;;;;;21.72;70.35;92264.16;4828697;29;20489;-77
2021/07/31 06:51:05;;;;;;;3.53;2.00;;;;;;;21.98;68.91;92259.94;4849554;29;20049;-77
2021/07/31 06:53:30;;;;;;;4.75;2.63;;;;;;;22.02;67.99;92250.06;4830395;29;20042;-78
2021/07/31 06:56:00;;;;;;;2.35;1.95;;;;;;;21.38;71.64;92256.06;4840817;29;20058;-78
2021/07/31 06:58:25;;;;;;;3.08;2.22;;;;;;;21.40;74.46;92255.72;4841341;29;20481;-76
2021/07/31 07:00:51;;;;;;;2.90;1.60;;;;;;;20.87;72.67;92253.75;4840759;29;20144;-77
2021/07/31 07:03:17;;;;;;;2.72;1.50;;;;;;;21.10;75.17;92260.97;4826417;29;20046;-78
2021/07/31 07:05:43;;;;;;;3.50;2.15;;;;;;;21.23;72.41;92270.28;4823351;29;20053;-77
2021/07/31 07:08:08;;;;;;;5.93;2.13;;;;;;;20.79;72.44;92257.44;4841722;29;20080;-77
2021/07/31 07:10:34;;;;;;;4.35;2.40;;;;;;;21.15;70.08;92258.00;4842464;29;20088;-78
2021/07/31 07:13:00;;;;;;;4.88;2.25;;;;;;;20.86;69.52;92262.88;4842178;29;20057;-78
2021/07/31 07:15:29;;;;;;;3.50;2.22;;;;;;;21.09;68.93;92267.41;4826277;29;20060;-78
2021/07/31 07:17:56;;;;;;;3.35;2.63;;;;;;;21.50;69.18;92272.97;4825531;29;20046;-77
2021/07/31 07:20:22;;;;;;;3.03;2.20;;;;;;;21.82;69.05;92273.44;4824262;29;20038;-77
2021/07/31 07:22:47;;;;;;;2.97;1.52;;;;;;;21.79;68.57;92269.56;4847287;29;20083;-80
2021/07/31 07:25:14;;;;;;;3.97;2.60;;;;;;;22.28;65.11;92269.81;4840875;29;20361;-77
2021/07/31 07:27:39;;;;;;;3.63;2.53;;;;;;;22.60;64.67;92264.81;4840867;29;20061;-78
2021/07/31 07:30:06;;;;;;;4.75;2.17;;;;;;;23.18;65.09;92264.22;4846042;29;20049;-77
2021/07/31 07:32:34;;;;;;;2.80;1.95;;;;;;;23.47;62.59;92259.84;4846898;29;20277;-78
2021/07/31 07:35:00;;;;;;;4.72;2.13;;;;;;;23.58;63.81;92261.81;4838096;29;20049;-77
2021/07/31 07:37:26;;;;;;;3.13;2.10;;;;;;;23.28;63.50;92260.06;4838007;29;20505;-76
2021/07/31 07:39:52;;;;;;;6.20;2.10;;;;;;;22.18;65.90;92263.97;4821016;29;20050;-77
2021/07/31 07:42:17;;;;;;;3.40;2.33;;;;;;;22.01;69.42;92265.28;4847136;29;20389;-77
2021/07/31 07:44:43;;;;;;;9.90;3.05;;;;;;;21.88;71.29;92261.31;4858267;29;20419;-77
2021/07/31 07:47:09;;;;;;;7.22;3.05;;;;;;;22.20;72.49;92259.06;4832338;29;20061;-77
2021/07/31 07:49:35;;;;;;;2.05;1.70;;;;;;;22.18;73.19;92263.22;4840923;29;20458;-77
2021/07/31 07:52:01;;;;;;;11.85;2.22;;;;;;;22.36;71.83;92258.09;4850338;29;20061;-77
2021/07/31 07:54:29;;;;;;;4.40;2.75;;;;;;;22.34;68.06;92255.03;4834715;29;20057;-78
2021/07/31 07:56:58;;;;;;;3.75;2.20;;;;;;;22.41;66.60;92249.78;4848456;29;20415;-77
2021/07/31 07:59:24;;;;;;;4.00;2.55;;;;;;;22.18;66.07;92250.66;4839737;29;20060;-78
2021/07/31 08:01:50;;;;;;;4.97;3.03;;;;;;;22.58;64.02;92249.16;4857832;29;20552;-78
2021/07/31 08:04:16;;;;;;;4.88;2.90;;;;;;;22.72;63.74;92255.78;4859466;29;20570;-77
2021/07/31 08:06:42;;;;;;;3.97;2.28;;;;;;;22.65;64.65;92262.59;4856640;29;20084;-77
2021/07/31 08:09:08;;;;;;;3.78;1.98;;;;;;;22.60;63.49;92273.56;4839553;29;20527;-79
2021/07/31 08:11:34;;;;;;;4.53;3.17;;;;;;;22.22;65.90;92270.16;4859377;29;20049;-78
2021/07/31 08:14:00;;;;;;;4.32;3.08;;;;;;;22.38;64.26;92271.81;4858679;29;20057;-79
2021/07/31 08:16:27;;;;;;;4.15;2.53;;;;;;;22.63;64.38;92267.53;4866705;29;20045;-78
2021/07/31 08:18:52;;;;;;;3.92;2.72;;;;;;;22.50;65.88;92273.50;4876531;29;20052;-78
2021/07/31 08:21:18;;;;;;;8.15;3.35;;;;;;;22.71;65.41;92272.94;4860659;29;20097;-77
2021/07/31 08:23:44;;;;;;;4.72;2.50;;;;;;;23.36;64.88;92264.34;4857856;29;20033;-78
2021/07/31 08:26:15;;;;;;;5.55;2.45;;;;;;;23.46;63.80;92263.66;4830312;29;20111;-76
2021/07/31 08:28:44;;;;;;;3.83;2.58;;;;;;;23.83;61.80;92265.41;4859987;29;20053;-77
2021/07/31 08:31:11;;;;;;;4.65;2.97;;;;;;;23.91;65.20;92255.53;4860045;29;20081;-78
2021/07/31 08:33:37;;;;;;;12.55;2.42;;;;;;;23.87;64.53;92263.53;4828617;29;20046;-77
2021/07/31 08:36:05;;;;;;;1.60;1.15;;;;;;;23.55;65.88;92259.88;4861934;29;20048;-78
2021/07/31 08:38:32;;;;;;;3.83;2.15;;;;;;;23.32;65.75;92252.88;4871412;29;20496;-78
2021/07/31 08:40:59;;;;;;;4.70;2.78;;;;;;;23.46;65.17;92252.97;4875097;29;20077;-76
2021/07/31 08:43:25;;;;;;;6.65;3.38;;;;;;;23.20;66.30;92253.16;4854560;29;20093;-77
2021/07/31 08:45:52;;;;;;;3.80;1.88;;;;;;;23.54;65.81;92261.03;4869648;29;20037;-78
2021/07/31 08:48:18;;;;;;;3.78;2.78;;;;;;;23.63;64.64;92250.78;4859760;29;20519;-77
2021/07/31 08:50:46;;;;;;;4.05;2.55;;;;;;;23.91;63.50;92255.53;4860482;29;20061;-77
2021/07/31 08:53:12;;;;;;;4.85;2.75;;;;;;;23.73;65.68;92252.72;4830660;29;20563;-77
2021/07/31 08:55:40;;;;;;;1.90;1.25;;;;;;;23.88;65.46;92249.03;4861946;29;20203;-78
2021/07/31 08:58:06;;;;;;;7.53;2.67;;;;;;;23.62;65.45;92255.38;4840158;29;20084;-76
2021/07/31 09:00:31;;;;;;;6.45;3.33;;;;;;;23.95;64.41;92252.88;4834951;29;20468;-78
2021/07/31 09:02:58;;;;;;;3.88;2.60;;;;;;;23.97;64.88;92245.25;4809585;29;20053;-77
2021/07/31 09:05:35;;;;;;;6.95;3.72;;;;;;;23.58;65.60;92249.22;4821061;29;20057;-78
2021/07/31 09:08:04;;;;;;;3.25;1.77;;;;;;;23.88;64.86;92249.03;4843034;29;20076;-78
2021/07/31 09:10:33;;;;;;;3.60;2.38;;;;;;;24.27;63.95;92244.97;4815234;29;20145;-78
2021/07/31 09:13:02;;;;;;;3.95;2.38;;;;;;;24.40;62.46;92246.16;4824487;29;20049;-78
2021/07/31 09:15:39;;;;;;;6.72;3.22;;;;;;;23.63;66.22;92238.19;4825114;29;20144;-78
2021/07/31 09:18:30;;;;;;;4.20;2.15;;;;;;;24.26;63.73;92238.84;4841031;29;20054;-78
2021/07/31 09:21:12;;;;;;;3.30;2.40;;;;;;;24.30;63.59;92242.31;4841178;29;20145;-77
2021/07/31 09:23:44;;;;;;;6.43;3.08;;;;;;;24.01;65.46;92243.38;4826524;29;20451;-77
2021/07/31 09:26:16;;;;;;;4.25;2.63;;;;;;;24.15;63.93;92238.06;4841434;29;20509;-79
2021/07/31 09:28:42;;;;;;;6.75;3.35;;;;;;;24.02;64.62;92236.84;4823840;29;20081;-78
2021/07/31 09:31:15;;;;;;;3.67;2.42;;;;;;;24.45;64.23;92237.78;4825250;29;20046;-78
2021/07/31 09:33:47;;;;;;;5.35;2.80;;;;;;;24.54;61.23;92228.63;4826911;29;20057;-78
2021/07/31 09:36:14;;;;;;;4.10;2.65;;;;;;;24.33;64.81;92229.34;4841312;29;20058;-78
2021/07/31 09:38:48;;;;;;;3.67;2.35;;;;;;;24.81;62.97;92234.41;4841263;29;20141;-79
2021/07/31 09:41:25;;;;;;;6.43;2.83;;;;;;;24.86;63.04;92226.03;4824668;29;20138;-79
2021/07/31 09:44:06;;;;;;;5.35;2.97;;;;;;;25.05;61.51;92230.97;4831819;29;20061;-78
2021/07/31 09:46:42;;;;;;;4.07;2.53;;;;;;;24.93;61.67;92223.34;4837897;29;20042;-78
2021/07/31 09:49:10;;;;;;;3.67;2.33;;;;;;;25.08;64.07;92227.56;4825215;29;20136;-78
2021/07/31 09:51:37;;;;;;;3.47;2.83;;;;;;;24.78;63.22;92235.19;4824991;29;20556;-79
2021/07/31 09:54:06;;;;;;;4.38;2.25;;;;;;;24.51;63.31;92232.84;4825123;29;20057;-80
2021/07/31 09:56:45;;;;;;;4.93;2.63;;;;;;;24.32;65.06;92231.25;4844550;29;20077;-80
2021/07/31 09:59:12;;;;;;;4.50;3.03;;;;;;;24.67;62.86;92227.91;4845212;29;20080;-79
2021/07/31 10:01:44;;;;;;;6.03;3.13;;;;;;;24.85;62.85;92238.63;4849615;29;20099;-79
2021/07/31 10:04:10;;;;;;;4.45;2.67;;;;;;;24.84;62.27;92231.75;4829285;29;20046;-79
2021/07/31 10:06:36;;;;;;;3.75;2.25;;;;;;;24.72;62.24;92229.44;4829709;29;20064;-79
2021/07/31 10:09:04;;;;;;;3.67;2.40;;;;;;;24.20;63.05;92226.22;4829413;29;20050;-78
2021/07/31 10:11:36;;;;;;;6.95;2.47;;;;;;;24.51;64.75;92230.16;4848844;29;20473;-77
2021/07/31 10:14:03;;;;;;;4.88;2.40;;;;;;;24.58;61.42;92235.53;4860499;29;20400;-79
2021/07/31 10:16:30;;;;;;;5.80;3.53;;;;;;;24.45;62.77;92229.75;4855523;29;20464;-79
2021/07/31 10:18:57;;;;;;;2.97;1.98;;;;;;;24.45;64.19;92226.28;4867329;29;20045;-79
2021/07/31 10:21:28;;;;;;;3.40;2.03;;;;;;;24.28;63.30;92225.88;4835532;29;20609;-78
2021/07/31 10:24:00;;;;;;;4.70;2.33;;;;;;;24.55;62.97;92217.56;4867284;29;20053;-78
2021/07/31 10:26:27;;;;;;;3.53;1.85;;;;;;;24.64;63.46;92223.31;4849331;29;20041;-78
2021/07/31 10:28:54;;;;;;;6.10;4.05;;;;;;;24.72;61.83;92216.84;4832028;29;20050;-79
2021/07/31 10:31:34;;;;;;;3.28;2.05;;;;;;;24.45;64.09;92212.91;4832282;29;20120;-78
2021/07/31 10:34:00;;;;;;;5.68;2.60;;;;;;;24.75;62.46;92217.97;4848477;29;20102;-77
2021/07/31 10:36:33;;;;;;;3.63;1.80;;;;;;;24.99;60.55;92215.69;4848162;29;20041;-78
2021/07/31 10:39:20;;;;;;;4.40;2.85;;;;;;;25.41;60.78;92214.16;4848769;29;20053;-77
2021/07/31 10:41:56;;;;;;;3.63;2.50;;;;;;;25.29;59.43;92218.75;4838400;29;20149;-78
2021/07/31 10:44:23;;;;;;;5.88;2.63;;;;;;;25.34;60.24;92209.56;4848954;29;20053;-79
2021/07/31 10:46:51;;;;;;;6.05;3.30;;;;;;;25.30;60.36;92203.44;4832082;29;20142;-79
2021/07/31 10:49:36;;;;;;;2.15;1.67;;;;;;;24.70;61.54;92197.72;4832292;29;20079;-78
2021/07/31 10:52:02;;;;;;;5.47;2.97;;;;;;;25.25;57.73;92193.13;4837589;29;20049;-79
2021/07/31 10:54:59;;;;;;;4.63;3.22;;;;;;;24.81;60.74;92200.38;4859276;29;20064;-78
2021/07/31 10:57:53;;;;;;;4.18;2.78;;;;;;;25.16;61.15;92190.06;4816601;29;20618;-78
2021/07/31 11:00:24;;;;;;;6.55;3.22;;;;;;;25.41;60.14;92198.09;4848751;29;21533;-79
2021/07/31 11:02:50;;;;;;;4.90;3.72;;;;;;;25.09;60.19;92196.94;4849493;29;20057;-78
2021/07/31 11:05:15;;;;;;;2.70;1.85;;;;;;;24.94;59.99;92195.41;4850670;29;20527;-78
2021/07/31 11:07:57;;;;;;;4.88;3.50;;;;;;;24.59;61.81;92183.56;4850068;29;20053;-79
2021/07/31 11:10:42;;;;;;;5.35;2.42;;;;;;;25.06;62.24;92187.00;4866447;29;20527;-78
2021/07/31 11:13:12;;;;;;;3.10;2.20;;;;;;;25.37;59.29;92178.56;4851209;29;20108;-78
2021/07/31 11:15:58;;;;;;;6.63;4.00;;;;;;;26.04;58.32;92166.13;4834136;29;20527;-79
2021/07/31 11:18:24;;;;;;;3.70;2.47;;;;;;;25.66;57.60;92171.22;4821824;29;20545;-79
2021/07/31 11:20:50;;;;;;;4.05;2.45;;;;;;;25.38;55.87;92164.03;4848622;29;20508;-79
2021/07/31 11:23:18;;;;;;;3.35;1.80;;;;;;;24.91;56.86;92153.34;4865421;29;20121;-79
2021/07/31 11:25:44;;;;;;;7.00;3.53;;;;;;;25.19;57.14;92152.56;4849597;29;20049;-79
2021/07/31 11:28:10;;;;;;;2.67;1.77;;;;;;;24.82;60.95;92152.97;4865366;29;20093;-77
2021/07/31 11:30:45;;;;;;;4.53;2.50;;;;;;;24.78;62.12;92150.28;4866323;29;20084;-78
2021/07/31 11:33:21;;;;;;;4.03;2.72;;;;;;;24.13;64.73;92152.09;4865357;29;20045;-79
2021/07/31 11:35:49;;;;;;;4.70;2.25;;;;;;;24.02;63.62;92141.38;4845113;29;20053;-78
2021/07/31 11:38:39;;;;;;;4.47;2.58;;;;;;;23.83;63.92;92155.84;4864649;29;20488;-77
2021/07/31 11:41:14;;;;;;;4.85;2.83;;;;;;;23.77;65.48;92157.34;4864387;29;20045;-79
2021/07/31 11:43:51;;;;;;;4.50;2.20;;;;;;;23.94;65.48;92158.56;4839660;29;20277;-78
2021/07/31 11:46:54;;;;;;;4.63;2.95;;;;;;;23.65;64.75;92163.00;4865118;29;20617;-79
2021/07/31 11:49:29;;;;;;;5.65;3.45;;;;;;;23.08;66.80;92142.13;4832233;29;20424;-79
2021/07/31 11:52:00;;;;;;;3.60;2.78;;;;;;;23.22;66.76;92136.09;4848023;29;20078;-79
2021/07/31 11:54:27;;;;;;;2.80;2.00;;;;;;;23.30;67.51;92132.31;4863061;29;20053;-79
2021/07/31 11:56:53;;;;;;;3.03;2.00;;;;;;;22.99;68.41;92139.78;4864628;29;20413;-78
2021/07/31 11:59:23;;;;;;;6.68;3.65;;;;;;;22.51;70.62;92152.34;4849070;29;20057;-79
2021/07/31 12:01:52;;;;;;;5.47;2.75;;;;;;;22.49;70.90;92166.03;4861548;29;20129;-78
2021/07/31 12:04:48;;;;;;;7.68;3.30;;;;;;;22.21;72.79;92166.50;4875632;29;20055;-79
2021/07/31 12:07:17;;;;;;;6.32;2.83;;;;;;;22.13;72.96;92163.00;4869696;29;20053;-78
2021/07/31 12:09:56;;;;;;;5.50;3.42;;;;;;;22.04;73.20;92160.66;4864418;29;20049;-79
2021/07/31 12:12:33;;;;;;;6.93;2.92;;;;;;;22.07;73.22;92156.47;4863362;29;20045;-79
2021/07/31 12:15:10;;;;;;;6.45;3.30;;;;;;;21.96;74.21;92169.69;4862487;29;20084;-79
2021/07/31 12:17:37;;;;;;;5.60;3.53;;;;;;;21.98;73.89;92169.34;4858803;29;20508;-78
2021/07/31 12:20:04;;;;;;;5.80;2.72;;;;;;;21.99;73.68;92173.50;4848196;29;20053;-79
2021/07/31 12:22:34;;;;;;;6.00;3.22;;;;;;;21.73;75.03;92172.47;4853735;29;20745;-79
2021/07/31 12:25:19;;;;;;;9.30;3.38;;;;;;;21.77;74.84;92167.97;4882144;29;20045;-79
2021/07/31 12:27:59;;;;;;;5.28;3.47;;;;;;;21.78;73.86;92171.38;4858982;29;20057;-79
2021/07/31 12:30:39;;;;;;;4.53;3.00;;;;;;;21.80;73.36;92167.22;4861972;29;20041;-78
2021/07/31 12:33:05;;;;;;;4.18;2.33;;;;;;;21.73;74.67;92164.50;4845277;29;20575;-78
2021/07/31 12:35:44;;;;;;;7.70;4.22;;;;;;;21.89;74.28;92176.84;4845326;29;20080;-77
2021/07/31 12:38:16;;;;;;;5.43;3.17;;;;;;;21.94;74.63;92157.84;4856769;29;20407;-77
2021/07/31 12:40:42;;;;;;;3.58;2.13;;;;;;;22.17;74.70;92139.81;4847834;29;20053;-78
2021/07/31 12:43:09;;;;;;;5.57;3.22;;;;;;;22.06;74.46;92133.59;4851600;29;20141;-78
2021/07/31 12:45:35;;;;;;;5.05;1.70;;;;;;;22.40;72.74;92136.22;4858709;29;20040;-78
2021/07/31 12:48:01;;;;;;;3.30;2.13;;;;;;;22.64;72.48;92146.34;4848281;29;20041;-77
2021/07/31 12:50:27;;;;;;;3.95;3.00;;;;;;;22.75;72.81;92137.66;4846201;29;20053;-77
2021/07/31 12:52:54;;;;;;;6.07;3.10;;;;;;;22.80;70.07;92127.41;4862701;29;20049;-77
2021/07/31 12:55:20;;;;;;;3.22;2.25;;;;;;;23.04;63.77;92099.38;4853066;29;20049;-76
2021/07/31 12:57:47;;;;;;;2.70;2.30;;;;;;;23.78;58.38;92078.72;4858480;29;20150;-78
2021/07/31 13:00:17;;;;;;;4.93;2.92;;;;;;;24.22;57.10;92069.59;4844572;29;20054;-77
2021/07/31 13:02:47;;;;;;;2.38;1.77;;;;;;;24.20;58.27;92063.13;4862699;29;20049;-77
2021/07/31 13:05:14;;;;;;;2.13;1.65;;;;;;;23.61;57.10;92082.06;4861980;29;20050;-77
2021/07/31 13:07:40;;;;;;;4.15;2.47;;;;;;;23.25;58.64;92087.28;4862867;29;20037;-78
2021/07/31 13:10:06;;;;;;;2.80;1.98;;;;;;;23.20;61.33;92085.72;4861348;29;20056;-78
2021/07/31 13:12:32;;;;;;;4.35;2.20;;;;;;;23.32;61.71;92087.31;4861936;29;20053;-78
2021/07/31 13:14:58;;;;;;;3.08;2.33;;;;;;;23.38;63.22;92093.06;4862382;29;20057;-78
2021/07/31 13:17:24;;;;;;;6.97;3.03;;;;;;;22.96;62.56;92103.09;4845664;29;20076;-77
2021/07/31 13:19:49;;;;;;;8.88;2.65;;;;;;;23.16;62.00;92092.94;4862221;29;20042;-77
2021/07/31 13:22:15;;;;;;;6.00;2.90;;;;;;;23.26;61.95;92084.25;4844932;29;20122;-78
2021/07/31 13:24:41;;;;;;;4.72;3.50;;;;;;;23.25;65.67;92081.94;4830720;29;20049;-77
2021/07/31 13:27:07;;;;;;;2.47;1.85;;;;;;;23.06;66.38;92131.81;4847285;29;20048;-78
2021/07/31 13:29:33;;;;;;;4.47;2.85;;;;;;;22.76;65.25;92155.19;4872125;29;20065;-77
2021/07/31 13:32:00;;;;;;;3.80;2.10;;;;;;;22.74;63.53;92149.47;4846357;29;20604;-77
2021/07/31 13:34:26;;;;;;;4.13;2.45;;;;;;;22.56;64.41;92136.78;4829157;29;20046;-78
2021/07/31 13:36:57;;;;;;;5.80;2.95;;;;;;;22.50;64.17;92124.91;4864329;29;20519;-78
2021/07/31 13:39:25;;;;;;;4.87;2.47;;;;;;;22.44;64.79;92105.78;4862013;29;20148;-77
2021/07/31 13:41:53;;;;;;;4.30;2.13;;;;;;;22.42;66.09;92110.72;4830046;29;20045;-77
2021/07/31 13:44:20;;;;;;;8.98;3.05;;;;;;;22.07;67.20;92113.84;4837650;29;20041;-78
2021/07/31 13:46:46;;;;;;;3.35;2.80;;;;;;;21.33;69.68;92131.25;4849247;29;20132;-78
2021/07/31 13:49:12;;;;;;;3.85;2.75;;;;;;;21.11;71.47;92137.44;4843842;29;20042;-78
2021/07/31 13:51:38;;;;;;;3.90;2.65;;;;;;;20.88;73.07;92142.81;4863618;29;20065;-77
2021/07/31 13:54:04;;;;;;;4.13;2.15;;;;;;;20.84;73.17;92120.72;4831946;29;20052;-78
2021/07/31 13:56:31;;;;;;;5.45;2.83;;;;;;;20.91;74.38;92129.56;4830748;29;20081;-77
2021/07/31 13:58:58;;;;;;;2.97;2.22;;;;;;;20.74;76.01;92162.75;4835086;29;20567;-77
2021/07/31 14:01:24;;;;;;;3.90;2.00;;;;;;;20.07;74.27;92181.75;4859874;29;20068;-78
2021/07/31 14:03:49;;;;;;;4.20;2.47;;;;;;;19.99;75.20;92184.63;4861849;29;20396;-77
2021/07/31 14:06:15;;;;;;;4.18;1.40;;;;;;;19.82;74.88;92194.56;4848141;29;20057;-77
2021/07/31 14:08:41;;;;;;;2.65;1.80;;;;;;;19.64;77.16;92196.06;4853168;29;20136;-77
2021/07/31 14:11:07;;;;;;;1.05;0.82;;;;;;;18.87;82.36;92206.19;4863704;29;20041;-78
2021/07/31 14:13:32;;;;;;;2.75;1.63;;;;;;;18.50;84.07;92195.06;4843742;29;20041;-78
2021/07/31 14:15:58;;;;;;;6.43;2.83;;;;;;;18.23;83.92;92191.34;4864131;29;20072;-78
2021/07/31 14:18:24;;;;;;;2.25;1.85;;;;;;;18.13;85.20;92182.03;4864936;29;20070;-78
2021/07/31 14:20:50;;;;;;;1.42;0.93;;;;;;;18.09;83.30;92175.88;4863648;29;20483;-77
2021/07/31 14:23:16;;;;;;;4.10;1.77;;;;;;;18.14;83.82;92183.56;4865247;29;20045;-78
2021/07/31 14:25:44;;;;;;;1.65;1.23;;;;;;;18.24;85.19;92188.38;4840955;29;20067;-77
2021/07/31 14:28:10;;;;;;;3.47;2.08;;;;;;;18.35;84.81;92178.06;4856447;29;20050;-77
2021/07/31 14:30:36;;;;;;;4.05;2.17;;;;;;;18.44;85.00;92164.59;4840511;29;20065;-79
2021/07/31 14:33:03;;;;;;;3.67;2.45;;;;;;;18.50;85.17;92157.94;4850346;29;20048;-78
2021/07/31 14:35:29;;;;;;;2.78;2.08;;;;;;;18.58;85.69;92138.47;4855630;29;20045;-79
2021/07/31 14:37:56;;;;;;;3.75;2.35;;;;;;;18.60;85.45;92127.50;4853411;29;20122;-78
2021/07/31 14:40:22;;;;;;;5.13;2.28;;;;;;;18.78;84.78;92123.41;4846419;29;20378;-78
2021/07/31 14:42:48;;;;;;;5.00;2.22;;;;;;;18.72;86.19;92132.72;4846565;29;20054;-77
2021/07/31 14:45:14;;;;;;;2.20;1.77;;;;;;;18.76;85.42;92136.22;4840822;29;20078;-78
2021/07/31 14:47:39;;;;;;;2.55;1.40;;;;;;;18.75;85.88;92142.63;4839359;29;20075;-78
2021/07/31 14:50:06;;;;;;;1.88;1.27;;;;;;;18.77;80.81;92139.63;4843034;29;20038;-77
2021/07/31 14:52:31;;;;;;;2.60;2.15;;;;;;;18.69;77.74;92128.09;4854952;29;20041;-77
2021/07/31 14:55:00;;;;;;;2.30;1.20;;;;;;;18.61;78.75;92147.59;4858609;29;20052;-78
2021/07/31 14:57:29;;;;;;;2.63;1.35;;;;;;;18.56;78.86;92167.19;4862664;29;20106;-77
2021/07/31 14:59:56;;;;;;;3.45;1.77;;;;;;;18.54;80.75;92164.09;4862564;29;20461;-78
2021/07/31 15:02:22;;;;;;;2.20;1.52;;;;;;;18.56;82.57;92158.47;4861479;29;20139;-77
2021/07/31 15:04:48;;;;;;;2.17;1.40;;;;;;;18.55;82.39;92151.63;4831554;29;20061;-78
2021/07/31 15:07:16;;;;;;;1.92;1.23;;;;;;;18.54;81.32;92137.59;4860947;29;20052;-77
2021/07/31 15:09:41;;;;;;;1.20;0.95;;;;;;;18.55;82.91;92149.72;4827615;29;20476;-78
2021/07/31 15:12:07;;;;;;;2.92;0.88;;;;;;;18.57;84.18;92144.09;4862834;29;20073;-78
2021/07/31 15:14:33;;;;;;;2.00;1.65;;;;;;;18.52;84.12;92139.81;4862446;29;20038;-78
2021/07/31 15:16:59;;;;;;;1.85;1.38;;;;;;;18.58;82.90;92140.34;4845871;29;20049;-77
2021/07/31 15:19:25;;;;;;;1.83;1.48;;;;;;;18.60;82.27;92148.69;4845804;29;20061;-77
2021/07/31 15:21:51;;;;;;;1.58;0.93;;;;;;;18.66;80.59;92142.03;4837006;29;20046;-78
2021/07/31 15:24:17;;;;;;;3.38;2.13;;;;;;;18.72;79.43;92122.09;4849690;29;20041;-78
2021/07/31 15:26:42;;;;;;;2.28;1.73;;;;;;;18.79;79.28;92116.97;4843951;29;20090;-77
2021/07/31 15:29:08;;;;;;;1.85;1.30;;;;;;;18.85;80.39;92107.66;4853928;29;20033;-78
2021/07/31 15:31:33;;;;;;;2.15;1.85;;;;;;;18.91;81.20;92114.22;4844663;29;20060;-77
2021/07/31 15:33:59;;;;;;;1.58;1.13;;;;;;;18.93;84.17;92117.28;4850166;29;20050;-78
2021/07/31 15:36:25;;;;;;;3.15;2.00;;;;;;;18.93;82.70;92124.47;4844560;29;20045;-78
2021/07/31 15:38:50;;;;;;;3.17;1.50;;;;;;;18.90;82.02;92133.88;4845152;29;20045;-78
2021/07/31 15:41:16;;;;;;;4.03;1.27;;;;;;;18.86;83.56;92138.34;4858365;29;20400;-78
2021/07/31 15:43:42;;;;;;;2.58;2.08;;;;;;;18.80;79.95;92155.66;4844511;29;20046;-77
2021/07/31 15:46:07;;;;;;;3.05;1.83;;;;;;;18.76;77.86;92175.97;4860504;29;20041;-77
2021/07/31 15:48:33;;;;;;;1.73;1.35;;;;;;;18.76;78.55;92180.53;4849289;29;20044;-78
2021/07/31 15:50:59;;;;;;;2.28;1.20;;;;;;;18.80;80.79;92182.16;4872968;29;21198;-78
2021/07/31 15:53:24;;;;;;;3.15;2.13;;;;;;;18.76;82.46;92173.34;4835931;29;20046;-76
2021/07/31 15:55:50;;;;;;;4.50;2.65;;;;;;;18.76;83.67;92160.06;4847767;29;20033;-77
2021/07/31 15:58:15;;;;;;;2.33;1.80;;;;;;;18.74;82.14;92141.09;4848812;29;20054;-77
2021/07/31 16:00:46;;;;;;;3.92;2.55;;;;;;;18.69;79.87;92138.72;4859349;29;20521;-76
2021/07/31 16:03:12;;;;;;;2.33;1.50;;;;;;;18.69;79.53;92151.97;4861931;29;20461;-77
2021/07/31 16:05:38;;;;;;;2.53;1.73;;;;;;;18.69;79.33;92154.63;4861685;29;20065;-78
2021/07/31 16:08:04;;;;;;;4.22;2.45;;;;;;;18.70;79.87;92153.50;4859998;29;20475;-78
2021/07/31 16:10:30;;;;;;;2.40;1.40;;;;;;;18.62;82.16;92149.91;4861756;29;20053;-78
2021/07/31 16:12:56;;;;;;;5.22;2.50;;;;;;;18.60;83.84;92168.03;4861665;29;20053;-77
2021/07/31 16:15:21;;;;;;;4.43;1.60;;;;;;;18.49;84.01;92172.31;4844664;29;20053;-78
2021/07/31 16:17:47;;;;;;;3.08;1.00;;;;;;;18.46;84.61;92173.78;4861762;29;20641;-78
2021/07/31 16:20:14;;;;;;;2.88;1.92;;;;;;;18.36;86.46;92184.13;4862019;29;20449;-78
2021/07/31 16:22:41;;;;;;;4.07;2.25;;;;;;;18.34;85.16;92179.16;4848165;29;20493;-76
2021/07/31 16:25:07;;;;;;;5.50;1.88;;;;;;;18.29;84.64;92174.09;4880696;29;20045;-78
2021/07/31 16:27:33;;;;;;;4.53;2.55;;;;;;;18.29;85.11;92164.28;4880214;29;20480;-77
2021/07/31 16:29:59;;;;;;;2.35;1.75;;;;;;;18.35;85.51;92167.44;4846636;29;20056;-77
2021/07/31 16:32:24;;;;;;;2.70;1.90;;;;;;;18.28;82.62;92173.34;4859215;29;20455;-78
2021/07/31 16:34:50;;;;;;;2.25;1.42;;;;;;;18.21;81.01;92169.72;4859471;29;20136;-78
2021/07/31 16:37:16;;;;;;;2.95;1.50;;;;;;;18.24;82.48;92166.41;4861713;29;20045;-79
2021/07/31 16:39:41;;;;;;;2.78;1.80;;;;;;;18.12;83.87;92166.47;4861405;29;20564;-78